sensor_id;sensor_type;location;lat;lon;timestamp;pressure;altitude;pressure_sealevel;temperature;humidity
48892;BME280;50130;52.150;5.236;2023-03-25T00:00:09;99871.0;;;11.49;79.63
48892;BME280;50130;52.150;5.236;2023-03-25T00:01:46;99884.0;;;11.49;78.7
48892;BME280;50130;52.150;5.236;2023-03-25T00:05:00;99878.0;;;11.44;78.94
48892;BME280;50130;52.150;5.236;2023-03-25T00:06:36;99873.0;;;11.41;79.83
48892;BME280;50130;52.150;5.236;2023-03-25T00:08:12;99883.0;;;11.49;79.55
48892;BME280;50130;52.150;5.236;2023-03-25T00:11:24;99877.0;;;11.56;79.44
48892;BME280;50130;52.150;5.236;2023-03-25T00:13:00;99880.0;;;11.37;79.7
48892;BME280;50130;52.150;5.236;2023-03-25T00:14:36;99881.0;;;11.4;79.59
48892;BME280;50130;52.150;5.236;2023-03-25T00:17:50;99882.0;;;11.48;79.61
48892;BME280;50130;52.150;5.236;2023-03-25T00:19:26;99877.0;;;11.47;79.55
48892;BME280;50130;52.150;5.236;2023-03-25T00:21:04;99880.0;;;11.45;80.09
48892;BME280;50130;52.150;5.236;2023-03-25T00:22:41;99878.0;;;11.33;80.47
48892;BME280;50130;52.150;5.236;2023-03-25T00:25:53;99876.0;;;11.37;79.91
48892;BME280;50130;52.150;5.236;2023-03-25T00:27:30;99866.0;;;11.37;79.33
48892;BME280;50130;52.150;5.236;2023-03-25T00:29:06;99868.0;;;11.41;79.66
48892;BME280;50130;52.150;5.236;2023-03-25T00:32:19;99868.0;;;11.45;79.63
48892;BME280;50130;52.150;5.236;2023-03-25T00:33:55;99874.0;;;11.33;79.5
48892;BME280;50130;52.150;5.236;2023-03-25T00:35:31;99872.0;;;11.39;79.77
48892;BME280;50130;52.150;5.236;2023-03-25T00:38:47;99875.0;;;11.42;80.17
48892;BME280;50130;52.150;5.236;2023-03-25T00:40:24;99875.0;;;11.44;79.88
48892;BME280;50130;52.150;5.236;2023-03-25T00:42:01;99878.0;;;11.47;79.47
48892;BME280;50130;52.150;5.236;2023-03-25T00:43:37;99875.0;;;11.51;79.36
48892;BME280;50130;52.150;5.236;2023-03-25T00:46:49;99880.0;;;11.48;78.88
48892;BME280;50130;52.150;5.236;2023-03-25T00:48:25;99882.0;;;11.45;79.8
48892;BME280;50130;52.150;5.236;2023-03-25T00:50:02;99881.0;;;11.41;79.63
48892;BME280;50130;52.150;5.236;2023-03-25T00:53:15;99875.0;;;11.44;79.83
48892;BME280;50130;52.150;5.236;2023-03-25T00:54:51;99880.0;;;11.45;80.19
48892;BME280;50130;52.150;5.236;2023-03-25T00:56:28;99877.0;;;11.39;80.22
48892;BME280;50130;52.150;5.236;2023-03-25T00:59:40;99878.0;;;11.27;79.8
48892;BME280;50130;52.150;5.236;2023-03-25T01:01:18;99875.0;;;11.36;79.25
48892;BME280;50130;52.150;5.236;2023-03-25T01:02:55;99876.0;;;11.48;79.33
48892;BME280;50130;52.150;5.236;2023-03-25T01:04:32;99878.0;;;11.32;80.11
48892;BME280;50130;52.150;5.236;2023-03-25T01:07:46;99880.0;;;11.29;79.37
48892;BME280;50130;52.150;5.236;2023-03-25T01:09:22;99872.0;;;11.28;79.27
48892;BME280;50130;52.150;5.236;2023-03-25T01:10:58;99866.0;;;11.3;79.27
48892;BME280;50130;52.150;5.236;2023-03-25T01:14:13;99872.0;;;11.22;80.24
48892;BME280;50130;52.150;5.236;2023-03-25T01:15:50;99873.0;;;11.3;79.53
48892;BME280;50130;52.150;5.236;2023-03-25T01:17:26;99866.0;;;11.36;79.16
48892;BME280;50130;52.150;5.236;2023-03-25T01:20:39;99861.0;;;11.44;78.95
48892;BME280;50130;52.150;5.236;2023-03-25T01:22:15;99872.0;;;11.47;78.99
48892;BME280;50130;52.150;5.236;2023-03-25T01:23:51;99867.0;;;11.42;78.52
48892;BME280;50130;52.150;5.236;2023-03-25T01:25:27;99871.0;;;11.42;78.89
48892;BME280;50130;52.150;5.236;2023-03-25T01:28:40;99875.0;;;11.37;79.03
48892;BME280;50130;52.150;5.236;2023-03-25T01:31:53;99868.0;;;11.47;79.34
48892;BME280;50130;52.150;5.236;2023-03-25T01:35:07;99869.0;;;11.42;79.69
48892;BME280;50130;52.150;5.236;2023-03-25T01:36:44;99862.0;;;11.38;82.14
48892;BME280;50130;52.150;5.236;2023-03-25T01:38:20;99869.0;;;11.21;85.87
48892;BME280;50130;52.150;5.236;2023-03-25T01:41:34;99855.0;;;11.15;86.44
48892;BME280;50130;52.150;5.236;2023-03-25T01:43:10;99864.0;;;11.02;87.15
48892;BME280;50130;52.150;5.236;2023-03-25T01:45:23;99858.0;;;10.95;87.69
48892;BME280;50130;52.150;5.236;2023-03-25T01:47:28;99863.0;;;10.99;87.59
48892;BME280;50130;52.150;5.236;2023-03-25T01:49:07;99860.0;;;10.85;87.8
48892;BME280;50130;52.150;5.236;2023-03-25T01:50:49;99848.0;;;10.75;87.36
48892;BME280;50130;52.150;5.236;2023-03-25T01:54:08;99860.0;;;10.68;88.72
48892;BME280;50130;52.150;5.236;2023-03-25T01:55:44;99857.0;;;10.82;89.11
48892;BME280;50130;52.150;5.236;2023-03-25T01:57:22;99863.0;;;10.76;88.86
48892;BME280;50130;52.150;5.236;2023-03-25T01:59:00;99858.0;;;10.63;89.46
48892;BME280;50130;52.150;5.236;2023-03-25T02:02:19;99861.0;;;10.69;90.16
48892;BME280;50130;52.150;5.236;2023-03-25T02:03:58;99851.0;;;10.61;90.47
48892;BME280;50130;52.150;5.236;2023-03-25T02:05:38;99860.0;;;10.67;90.7
48892;BME280;50130;52.150;5.236;2023-03-25T02:07:18;99848.0;;;10.55;90.18
48892;BME280;50130;52.150;5.236;2023-03-25T02:10:33;99857.0;;;10.56;89.53
48892;BME280;50130;52.150;5.236;2023-03-25T02:12:10;99853.0;;;10.45;89.92
48892;BME280;50130;52.150;5.236;2023-03-25T02:13:46;99850.0;;;10.57;89.86
48892;BME280;50130;52.150;5.236;2023-03-25T02:17:05;99855.0;;;10.44;90.27
48892;BME280;50130;52.150;5.236;2023-03-25T02:18:54;99847.0;;;10.52;90.3
48892;BME280;50130;52.150;5.236;2023-03-25T02:21:02;99847.0;;;10.58;89.82
48892;BME280;50130;52.150;5.236;2023-03-25T02:27:50;99847.0;;;10.68;89.68
48892;BME280;50130;52.150;5.236;2023-03-25T02:29:45;99836.0;;;10.48;89.63
48892;BME280;50130;52.150;5.236;2023-03-25T02:32:59;99848.0;;;10.65;89.18
48892;BME280;50130;52.150;5.236;2023-03-25T02:35:55;99844.0;;;10.62;90.05
48892;BME280;50130;52.150;5.236;2023-03-25T02:39:55;99863.0;;;10.64;89.28
48892;BME280;50130;52.150;5.236;2023-03-25T02:41:38;99841.0;;;10.63;90.39
48892;BME280;50130;52.150;5.236;2023-03-25T02:43:22;99849.0;;;10.59;89.75
48892;BME280;50130;52.150;5.236;2023-03-25T02:45:05;99840.0;;;10.56;89.35
48892;BME280;50130;52.150;5.236;2023-03-25T02:48:39;99845.0;;;10.73;89.31
48892;BME280;50130;52.150;5.236;2023-03-25T02:50:21;99845.0;;;10.76;88.61
48892;BME280;50130;52.150;5.236;2023-03-25T02:52:05;99848.0;;;10.66;88.79
48892;BME280;50130;52.150;5.236;2023-03-25T02:53:45;99840.0;;;10.72;89.06
48892;BME280;50130;52.150;5.236;2023-03-25T02:55:24;99846.0;;;10.74;88.5
48892;BME280;50130;52.150;5.236;2023-03-25T02:58:43;99841.0;;;10.69;88.13
48892;BME280;50130;52.150;5.236;2023-03-25T03:00:23;99842.0;;;10.74;87.62
48892;BME280;50130;52.150;5.236;2023-03-25T03:02:04;99835.0;;;10.84;87.67
48892;BME280;50130;52.150;5.236;2023-03-25T03:05:21;99834.0;;;10.82;87.71
48892;BME280;50130;52.150;5.236;2023-03-25T03:06:58;99836.0;;;10.76;88.43
48892;BME280;50130;52.150;5.236;2023-03-25T03:08:48;99836.0;;;10.73;90.63
48892;BME280;50130;52.150;5.236;2023-03-25T03:11:24;99834.0;;;10.7;91.53
48892;BME280;50130;52.150;5.236;2023-03-25T03:13:11;99832.0;;;10.81;91.83
48892;BME280;50130;52.150;5.236;2023-03-25T03:15:02;99824.0;;;10.72;92.29
48892;BME280;50130;52.150;5.236;2023-03-25T03:16:46;99825.0;;;10.54;93.23
48892;BME280;50130;52.150;5.236;2023-03-25T03:18:36;99819.0;;;10.55;93.16
48892;BME280;50130;52.150;5.236;2023-03-25T03:22:18;99822.0;;;10.51;93.44
48892;BME280;50130;52.150;5.236;2023-03-25T03:24:03;99820.0;;;10.58;93.77
48892;BME280;50130;52.150;5.236;2023-03-25T03:25:46;99821.0;;;10.52;94.57
48892;BME280;50130;52.150;5.236;2023-03-25T03:27:28;99821.0;;;10.56;95.19
48892;BME280;50130;52.150;5.236;2023-03-25T03:29:11;99830.0;;;10.51;94.72
48892;BME280;50130;52.150;5.236;2023-03-25T03:32:39;99818.0;;;10.59;94.82
48892;BME280;50130;52.150;5.236;2023-03-25T03:34:21;99815.0;;;10.6;94.59
48892;BME280;50130;52.150;5.236;2023-03-25T03:36:03;99814.0;;;10.42;95.37
48892;BME280;50130;52.150;5.236;2023-03-25T03:37:46;99812.0;;;10.43;95.09
48892;BME280;50130;52.150;5.236;2023-03-25T03:39:29;99808.0;;;10.48;94.4
48892;BME280;50130;52.150;5.236;2023-03-25T03:42:51;99801.0;;;10.38;94.78
48892;BME280;50130;52.150;5.236;2023-03-25T03:44:32;99807.0;;;10.32;95.15
48892;BME280;50130;52.150;5.236;2023-03-25T03:46:14;99810.0;;;10.44;95.17
48892;BME280;50130;52.150;5.236;2023-03-25T03:47:55;99805.0;;;10.42;94.57
48892;BME280;50130;52.150;5.236;2023-03-25T03:51:16;99808.0;;;10.43;94.66
48892;BME280;50130;52.150;5.236;2023-03-25T03:53:01;99809.0;;;10.37;94.3
48892;BME280;50130;52.150;5.236;2023-03-25T03:54:44;99800.0;;;10.42;94.48
48892;BME280;50130;52.150;5.236;2023-03-25T03:56:25;99799.0;;;10.52;94.51
48892;BME280;50130;52.150;5.236;2023-03-25T03:59:51;99807.0;;;10.51;94.41
48892;BME280;50130;52.150;5.236;2023-03-25T04:01:33;99808.0;;;10.61;94.43
48892;BME280;50130;52.150;5.236;2023-03-25T04:03:17;99810.0;;;10.51;95.59
48892;BME280;50130;52.150;5.236;2023-03-25T04:04:55;99803.0;;;10.42;95.9
48892;BME280;50130;52.150;5.236;2023-03-25T04:06:34;99802.0;;;10.43;95.84
48892;BME280;50130;52.150;5.236;2023-03-25T04:10:05;99788.0;;;10.36;96.76
48892;BME280;50130;52.150;5.236;2023-03-25T04:11:49;99792.0;;;10.37;96.75
48892;BME280;50130;52.150;5.236;2023-03-25T04:13:34;99794.0;;;10.39;96.71
48892;BME280;50130;52.150;5.236;2023-03-25T04:15:17;99807.0;;;10.33;97.04
48892;BME280;50130;52.150;5.236;2023-03-25T04:18:30;99806.0;;;10.43;97.16
48892;BME280;50130;52.150;5.236;2023-03-25T04:20:08;99809.0;;;10.26;97.55
48892;BME280;50130;52.150;5.236;2023-03-25T04:21:46;99812.0;;;10.37;97.87
48892;BME280;50130;52.150;5.236;2023-03-25T04:23:22;99808.0;;;10.37;98.34
48892;BME280;50130;52.150;5.236;2023-03-25T04:26:34;99807.0;;;10.14;99.09
48892;BME280;50130;52.150;5.236;2023-03-25T04:28:11;99815.0;;;10.24;98.95
48892;BME280;50130;52.150;5.236;2023-03-25T04:29:47;99802.0;;;10.09;99.21
48892;BME280;50130;52.150;5.236;2023-03-25T04:33:00;99806.0;;;10.11;99.09
48892;BME280;50130;52.150;5.236;2023-03-25T04:34:36;99823.0;;;10.19;98.78
48892;BME280;50130;52.150;5.236;2023-03-25T04:36:13;99810.0;;;9.92;100.0
48892;BME280;50130;52.150;5.236;2023-03-25T04:39:26;99803.0;;;9.56;96.02
48892;BME280;50130;52.150;5.236;2023-03-25T04:41:02;99798.0;;;9.58;96.93
48892;BME280;50130;52.150;5.236;2023-03-25T04:42:38;99795.0;;;9.71;97.79
48892;BME280;50130;52.150;5.236;2023-03-25T04:44:14;99810.0;;;9.72;98.73
48892;BME280;50130;52.150;5.236;2023-03-25T04:47:27;99806.0;;;9.77;98.65
48892;BME280;50130;52.150;5.236;2023-03-25T04:49:03;99815.0;;;9.78;98.76
48892;BME280;50130;52.150;5.236;2023-03-25T04:50:40;99822.0;;;9.83;98.84
48892;BME280;50130;52.150;5.236;2023-03-25T04:53:52;99823.0;;;9.81;99.19
48892;BME280;50130;52.150;5.236;2023-03-25T04:55:28;99823.0;;;9.84;99.71
48892;BME280;50130;52.150;5.236;2023-03-25T04:57:04;99811.0;;;9.9;99.86
48892;BME280;50130;52.150;5.236;2023-03-25T05:00:19;99812.0;;;9.81;100.0
48892;BME280;50130;52.150;5.236;2023-03-25T05:01:56;99822.0;;;9.91;99.77
48892;BME280;50130;52.150;5.236;2023-03-25T05:03:32;99820.0;;;9.91;99.87
48892;BME280;50130;52.150;5.236;2023-03-25T05:05:09;99820.0;;;9.98;99.69
48892;BME280;50130;52.150;5.236;2023-03-25T05:08:24;99816.0;;;10.09;99.34
48892;BME280;50130;52.150;5.236;2023-03-25T05:10:01;99801.0;;;10.03;100.0
48892;BME280;50130;52.150;5.236;2023-03-25T05:11:38;99813.0;;;10.23;99.22
48892;BME280;50130;52.150;5.236;2023-03-25T05:14:52;99810.0;;;10.1;98.76
48892;BME280;50130;52.150;5.236;2023-03-25T05:16:28;99814.0;;;10.14;99.15
48892;BME280;50130;52.150;5.236;2023-03-25T05:18:05;99811.0;;;10.21;98.61
48892;BME280;50130;52.150;5.236;2023-03-25T05:21:18;99821.0;;;10.07;99.15
48892;BME280;50130;52.150;5.236;2023-03-25T05:22:54;99816.0;;;10.1;99.0
48892;BME280;50130;52.150;5.236;2023-03-25T05:24:31;99818.0;;;10.01;99.0
48892;BME280;50130;52.150;5.236;2023-03-25T05:26:07;99813.0;;;10.08;98.99
48892;BME280;50130;52.150;5.236;2023-03-25T05:29:20;99821.0;;;9.98;99.72
48892;BME280;50130;52.150;5.236;2023-03-25T05:30:56;99825.0;;;9.98;99.76
48892;BME280;50130;52.150;5.236;2023-03-25T05:32:32;99836.0;;;10.17;98.97
48892;BME280;50130;52.150;5.236;2023-03-25T05:35:45;99832.0;;;10.14;99.29
48892;BME280;50130;52.150;5.236;2023-03-25T05:37:22;99830.0;;;10.09;98.71
48892;BME280;50130;52.150;5.236;2023-03-25T05:38:58;99837.0;;;10.1;98.75
48892;BME280;50130;52.150;5.236;2023-03-25T05:42:10;99828.0;;;10.03;98.8
48892;BME280;50130;52.150;5.236;2023-03-25T05:43:46;99834.0;;;10.14;98.41
48892;BME280;50130;52.150;5.236;2023-03-25T05:45:23;99840.0;;;10.01;98.75
48892;BME280;50130;52.150;5.236;2023-03-25T05:46:58;99840.0;;;10.02;98.13
48892;BME280;50130;52.150;5.236;2023-03-25T05:50:11;99848.0;;;9.99;98.39
48892;BME280;50130;52.150;5.236;2023-03-25T05:51:48;99844.0;;;10.11;98.28
48892;BME280;50130;52.150;5.236;2023-03-25T05:53:24;99835.0;;;10.19;97.56
48892;BME280;50130;52.150;5.236;2023-03-25T05:56:36;99842.0;;;10.07;97.04
48892;BME280;50130;52.150;5.236;2023-03-25T05:58:12;99842.0;;;10.15;96.62
48892;BME280;50130;52.150;5.236;2023-03-25T05:59:49;99846.0;;;9.98;97.53
48892;BME280;50130;52.150;5.236;2023-03-25T06:03:01;99860.0;;;10.06;96.66
48892;BME280;50130;52.150;5.236;2023-03-25T06:04:37;99855.0;;;10.03;96.35
48892;BME280;50130;52.150;5.236;2023-03-25T06:06:14;99855.0;;;9.93;96.92
48892;BME280;50130;52.150;5.236;2023-03-25T06:07:51;99862.0;;;9.98;96.48
48892;BME280;50130;52.150;5.236;2023-03-25T06:11:04;99856.0;;;9.99;96.28
48892;BME280;50130;52.150;5.236;2023-03-25T06:12:40;99855.0;;;10.09;96.06
48892;BME280;50130;52.150;5.236;2023-03-25T06:14:16;99855.0;;;10.17;95.74
48892;BME280;50130;52.150;5.236;2023-03-25T06:17:28;99857.0;;;10.0;96.66
48892;BME280;50130;52.150;5.236;2023-03-25T06:19:04;99856.0;;;9.99;96.36
48892;BME280;50130;52.150;5.236;2023-03-25T06:20:41;99858.0;;;9.99;97.03
48892;BME280;50130;52.150;5.236;2023-03-25T06:23:56;99846.0;;;10.08;96.82
48892;BME280;50130;52.150;5.236;2023-03-25T06:25:32;99850.0;;;10.21;96.08
48892;BME280;50130;52.150;5.236;2023-03-25T06:27:11;99851.0;;;10.16;95.95
48892;BME280;50130;52.150;5.236;2023-03-25T06:28:49;99855.0;;;10.14;96.78
48892;BME280;50130;52.150;5.236;2023-03-25T06:32:02;99855.0;;;10.14;97.03
48892;BME280;50130;52.150;5.236;2023-03-25T06:33:38;99861.0;;;10.05;98.06
48892;BME280;50130;52.150;5.236;2023-03-25T06:35:16;99870.0;;;10.06;98.38
48892;BME280;50130;52.150;5.236;2023-03-25T06:38:28;99870.0;;;10.05;98.21
48892;BME280;50130;52.150;5.236;2023-03-25T06:40:05;99867.0;;;9.91;98.71
48892;BME280;50130;52.150;5.236;2023-03-25T06:41:43;99880.0;;;9.97;98.84
48892;BME280;50130;52.150;5.236;2023-03-25T06:44:55;99874.0;;;9.89;99.28
48892;BME280;50130;52.150;5.236;2023-03-25T06:46:32;99881.0;;;9.84;99.92
48892;BME280;50130;52.150;5.236;2023-03-25T06:48:08;99884.0;;;9.82;100.0
48892;BME280;50130;52.150;5.236;2023-03-25T06:49:44;99881.0;;;9.81;100.0
48892;BME280;50130;52.150;5.236;2023-03-25T06:52:56;99878.0;;;9.84;100.0
48892;BME280;50130;52.150;5.236;2023-03-25T06:54:33;99870.0;;;9.96;99.85
48892;BME280;50130;52.150;5.236;2023-03-25T06:56:10;99873.0;;;9.98;99.7
48892;BME280;50130;52.150;5.236;2023-03-25T06:59:22;99869.0;;;10.05;99.88
48892;BME280;50130;52.150;5.236;2023-03-25T07:00:58;99862.0;;;9.98;100.0
48892;BME280;50130;52.150;5.236;2023-03-25T07:02:34;99881.0;;;9.96;99.99
48892;BME280;50130;52.150;5.236;2023-03-25T07:05:47;99880.0;;;10.02;100.0
48892;BME280;50130;52.150;5.236;2023-03-25T07:07:24;99882.0;;;9.89;99.27
48892;BME280;50130;52.150;5.236;2023-03-25T07:09:01;99883.0;;;9.86;99.43
48892;BME280;50130;52.150;5.236;2023-03-25T07:10:37;99878.0;;;9.91;100.0
48892;BME280;50130;52.150;5.236;2023-03-25T07:13:49;99864.0;;;9.98;99.98
48892;BME280;50130;52.150;5.236;2023-03-25T07:15:25;99870.0;;;9.98;99.34
48892;BME280;50130;52.150;5.236;2023-03-25T07:17:01;99862.0;;;10.14;99.28
48892;BME280;50130;52.150;5.236;2023-03-25T07:20:14;99868.0;;;10.07;99.36
48892;BME280;50130;52.150;5.236;2023-03-25T07:21:51;99874.0;;;10.14;99.12
48892;BME280;50130;52.150;5.236;2023-03-25T07:23:27;99880.0;;;10.03;99.62
48892;BME280;50130;52.150;5.236;2023-03-25T07:26:40;99882.0;;;10.09;100.0
48892;BME280;50130;52.150;5.236;2023-03-25T07:28:17;99880.0;;;10.15;99.34
48892;BME280;50130;52.150;5.236;2023-03-25T07:29:54;99888.0;;;10.18;99.08
48892;BME280;50130;52.150;5.236;2023-03-25T07:33:06;99884.0;;;10.31;98.42
48892;BME280;50130;52.150;5.236;2023-03-25T07:34:43;99883.0;;;10.39;98.55
48892;BME280;50130;52.150;5.236;2023-03-25T07:36:19;99884.0;;;10.41;98.23
48892;BME280;50130;52.150;5.236;2023-03-25T07:37:55;99890.0;;;10.38;98.87
48892;BME280;50130;52.150;5.236;2023-03-25T07:41:09;99888.0;;;10.37;98.97
48892;BME280;50130;52.150;5.236;2023-03-25T07:42:47;99892.0;;;10.35;97.75
48892;BME280;50130;52.150;5.236;2023-03-25T07:44:23;99886.0;;;10.43;98.0
48892;BME280;50130;52.150;5.236;2023-03-25T07:47:36;99886.0;;;10.48;97.0
48892;BME280;50130;52.150;5.236;2023-03-25T07:49:13;99893.0;;;10.49;96.99
48892;BME280;50130;52.150;5.236;2023-03-25T07:50:51;99898.0;;;10.45;97.64
48892;BME280;50130;52.150;5.236;2023-03-25T07:52:28;99894.0;;;10.37;97.83
48892;BME280;50130;52.150;5.236;2023-03-25T07:55:40;99893.0;;;10.43;97.78
48892;BME280;50130;52.150;5.236;2023-03-25T07:57:16;99896.0;;;10.48;96.92
48892;BME280;50130;52.150;5.236;2023-03-25T07:58:52;99896.0;;;10.47;96.32
48892;BME280;50130;52.150;5.236;2023-03-25T08:02:05;99898.0;;;10.46;97.88
48892;BME280;50130;52.150;5.236;2023-03-25T08:03:42;99907.0;;;10.45;96.45
48892;BME280;50130;52.150;5.236;2023-03-25T08:05:18;99898.0;;;10.35;96.98
48892;BME280;50130;52.150;5.236;2023-03-25T08:08:30;99902.0;;;10.38;97.12
48892;BME280;50130;52.150;5.236;2023-03-25T08:10:07;99899.0;;;10.35;96.69
48892;BME280;50130;52.150;5.236;2023-03-25T08:11:43;99905.0;;;10.32;96.67
48892;BME280;50130;52.150;5.236;2023-03-25T08:14:55;99912.0;;;10.44;95.44
48892;BME280;50130;52.150;5.236;2023-03-25T08:16:32;99918.0;;;10.42;96.04
48892;BME280;50130;52.150;5.236;2023-03-25T08:18:08;99915.0;;;10.44;96.66
48892;BME280;50130;52.150;5.236;2023-03-25T08:19:44;99917.0;;;10.56;96.04
48892;BME280;50130;52.150;5.236;2023-03-25T08:22:56;99914.0;;;10.49;94.5
48892;BME280;50130;52.150;5.236;2023-03-25T08:24:32;99919.0;;;10.52;95.02
48892;BME280;50130;52.150;5.236;2023-03-25T08:26:08;99921.0;;;10.55;95.57
48892;BME280;50130;52.150;5.236;2023-03-25T08:29:21;99917.0;;;10.48;95.64
48892;BME280;50130;52.150;5.236;2023-03-25T08:30:57;99937.0;;;10.62;96.02
48892;BME280;50130;52.150;5.236;2023-03-25T08:32:34;99920.0;;;10.55;94.98
48892;BME280;50130;52.150;5.236;2023-03-25T08:35:48;99935.0;;;10.57;95.22
48892;BME280;50130;52.150;5.236;2023-03-25T08:37:24;99931.0;;;10.64;94.51
48892;BME280;50130;52.150;5.236;2023-03-25T08:39:01;99924.0;;;10.59;95.75
48892;BME280;50130;52.150;5.236;2023-03-25T08:40:37;99923.0;;;10.68;96.58
48892;BME280;50130;52.150;5.236;2023-03-25T08:43:53;99928.0;;;10.71;95.37
48892;BME280;50130;52.150;5.236;2023-03-25T08:45:29;99924.0;;;10.76;97.02
48892;BME280;50130;52.150;5.236;2023-03-25T08:47:07;99927.0;;;10.77;95.3
48892;BME280;50130;52.150;5.236;2023-03-25T08:50:20;99925.0;;;10.8;95.98
48892;BME280;50130;52.150;5.236;2023-03-25T08:51:56;99912.0;;;10.85;95.25
48892;BME280;50130;52.150;5.236;2023-03-25T08:53:33;99925.0;;;10.87;95.04
48892;BME280;50130;52.150;5.236;2023-03-25T08:56:46;99925.0;;;10.81;93.18
48892;BME280;50130;52.150;5.236;2023-03-25T08:58:23;99930.0;;;10.89;93.03
48892;BME280;50130;52.150;5.236;2023-03-25T08:59:59;99925.0;;;10.95;92.05
48892;BME280;50130;52.150;5.236;2023-03-25T09:01:35;99932.0;;;10.98;93.74
48892;BME280;50130;52.150;5.236;2023-03-25T09:04:48;99915.0;;;10.93;91.7
48892;BME280;50130;52.150;5.236;2023-03-25T09:06:24;99933.0;;;11.0;91.9
48892;BME280;50130;52.150;5.236;2023-03-25T09:08:00;99924.0;;;11.08;90.93
48892;BME280;50130;52.150;5.236;2023-03-25T09:11:12;99939.0;;;11.2;91.41
48892;BME280;50130;52.150;5.236;2023-03-25T09:12:48;99928.0;;;11.14;90.94
48892;BME280;50130;52.150;5.236;2023-03-25T09:14:25;99936.0;;;11.1;89.48
48892;BME280;50130;52.150;5.236;2023-03-25T09:17:37;99936.0;;;11.3;89.56
48892;BME280;50130;52.150;5.236;2023-03-25T09:19:14;99945.0;;;11.29;90.34
48892;BME280;50130;52.150;5.236;2023-03-25T09:20:50;99930.0;;;11.26;90.03
48892;BME280;50130;52.150;5.236;2023-03-25T09:22:27;99942.0;;;11.34;90.59
48892;BME280;50130;52.150;5.236;2023-03-25T09:25:39;99951.0;;;11.42;90.86
48892;BME280;50130;52.150;5.236;2023-03-25T09:27:16;99949.0;;;11.55;89.97
48892;BME280;50130;52.150;5.236;2023-03-25T09:28:52;99939.0;;;11.57;91.23
48892;BME280;50130;52.150;5.236;2023-03-25T09:32:04;99931.0;;;11.57;90.17
48892;BME280;50130;52.150;5.236;2023-03-25T09:33:40;99945.0;;;11.56;89.36
48892;BME280;50130;52.150;5.236;2023-03-25T09:35:17;99945.0;;;11.52;88.59
48892;BME280;50130;52.150;5.236;2023-03-25T09:38:31;99951.0;;;11.63;89.64
48892;BME280;50130;52.150;5.236;2023-03-25T09:40:10;99961.0;;;11.61;86.67
48892;BME280;50130;52.150;5.236;2023-03-25T09:42:00;99945.0;;;11.62;86.98
48892;BME280;50130;52.150;5.236;2023-03-25T09:44:13;99952.0;;;11.66;87.93
48892;BME280;50130;52.150;5.236;2023-03-25T09:45:54;99961.0;;;11.61;84.75
48892;BME280;50130;52.150;5.236;2023-03-25T09:47:32;99949.0;;;11.59;85.7
48892;BME280;50130;52.150;5.236;2023-03-25T09:50:52;99962.0;;;11.58;83.99
48892;BME280;50130;52.150;5.236;2023-03-25T09:52:33;99955.0;;;11.57;85.28
48892;BME280;50130;52.150;5.236;2023-03-25T09:54:17;99959.0;;;11.58;83.35
48892;BME280;50130;52.150;5.236;2023-03-25T09:55:58;99966.0;;;11.55;84.19
48892;BME280;50130;52.150;5.236;2023-03-25T09:59:21;99959.0;;;11.57;86.06
48892;BME280;50130;52.150;5.236;2023-03-25T10:01:09;99958.0;;;11.57;83.86
48892;BME280;50130;52.150;5.236;2023-03-25T10:03:00;99971.0;;;11.65;83.76
48892;BME280;50130;52.150;5.236;2023-03-25T10:04:58;99959.0;;;11.83;84.66
48892;BME280;50130;52.150;5.236;2023-03-25T10:06:42;99967.0;;;11.95;85.66
48892;BME280;50130;52.150;5.236;2023-03-25T10:08:33;99969.0;;;11.95;81.49
48892;BME280;50130;52.150;5.236;2023-03-25T10:12:06;99977.0;;;11.87;84.22
48892;BME280;50130;52.150;5.236;2023-03-25T10:13:54;99982.0;;;11.91;86.05
48892;BME280;50130;52.150;5.236;2023-03-25T10:15:38;99986.0;;;11.86;87.64
48892;BME280;50130;52.150;5.236;2023-03-25T10:17:26;99972.0;;;11.77;86.57
48892;BME280;50130;52.150;5.236;2023-03-25T10:19:20;99977.0;;;11.82;85.29
48892;BME280;50130;52.150;5.236;2023-03-25T10:21:05;99981.0;;;11.87;86.31
48892;BME280;50130;52.150;5.236;2023-03-25T10:24:42;99985.0;;;11.8;83.82
48892;BME280;50130;52.150;5.236;2023-03-25T10:26:24;99968.0;;;11.91;83.27
48892;BME280;50130;52.150;5.236;2023-03-25T10:28:04;99986.0;;;11.93;83.16
48892;BME280;50130;52.150;5.236;2023-03-25T10:29:49;99988.0;;;12.07;83.91
48892;BME280;50130;52.150;5.236;2023-03-25T10:31:33;99991.0;;;12.2;84.33
48892;BME280;50130;52.150;5.236;2023-03-25T10:35:00;99981.0;;;12.27;82.83
48892;BME280;50130;52.150;5.236;2023-03-25T10:36:41;99989.0;;;12.32;80.47
48892;BME280;50130;52.150;5.236;2023-03-25T10:38:23;99986.0;;;12.34;81.25
48892;BME280;50130;52.150;5.236;2023-03-25T10:40:12;99982.0;;;12.3;79.83
48892;BME280;50130;52.150;5.236;2023-03-25T10:43:34;100011.0;;;12.23;76.02
48892;BME280;50130;52.150;5.236;2023-03-25T10:45:14;100003.0;;;12.2;79.3
48892;BME280;50130;52.150;5.236;2023-03-25T10:46:54;99998.0;;;12.16;79.3
48892;BME280;50130;52.150;5.236;2023-03-25T10:48:33;99977.0;;;12.14;78.52
48892;BME280;50130;52.150;5.236;2023-03-25T10:51:51;99987.0;;;12.22;79.61
48892;BME280;50130;52.150;5.236;2023-03-25T10:53:28;100007.0;;;12.18;77.52
48892;BME280;50130;52.150;5.236;2023-03-25T10:55:16;100011.0;;;12.32;78.45
48892;BME280;50130;52.150;5.236;2023-03-25T10:57:01;100002.0;;;12.35;79.87
48892;BME280;50130;52.150;5.236;2023-03-25T10:58:41;100021.0;;;12.46;77.16
48892;BME280;50130;52.150;5.236;2023-03-25T11:01:58;100014.0;;;12.43;77.05
48892;BME280;50130;52.150;5.236;2023-03-25T11:03:35;100012.0;;;12.6;77.11
48892;BME280;50130;52.150;5.236;2023-03-25T11:05:15;99995.0;;;12.5;76.16
48892;BME280;50130;52.150;5.236;2023-03-25T11:08:34;100005.0;;;12.46;76.58
48892;BME280;50130;52.150;5.236;2023-03-25T11:10:15;100016.0;;;12.48;80.16
48892;BME280;50130;52.150;5.236;2023-03-25T11:11:53;100024.0;;;12.35;78.23
48892;BME280;50130;52.150;5.236;2023-03-25T11:13:30;100011.0;;;12.29;78.91
48892;BME280;50130;52.150;5.236;2023-03-25T11:16:53;100030.0;;;12.32;77.52
48892;BME280;50130;52.150;5.236;2023-03-25T11:18:34;100016.0;;;12.37;78.53
48892;BME280;50130;52.150;5.236;2023-03-25T11:20:18;100010.0;;;12.6;79.19
48892;BME280;50130;52.150;5.236;2023-03-25T11:21:58;100022.0;;;12.79;79.94
48892;BME280;50130;52.150;5.236;2023-03-25T11:25:24;100030.0;;;12.74;76.05